Time;durP1;ratioP1;P1;durP2;ratioP2;P2;SDS_P1;SDS_P2;PMS_P1;PMS_P2;Temp;Humidity;BMP_temperature;BMP_pressure;BME280_temperature;BME280_humidity;BME280_pressure;Samples;Min_cycle;Max_cycle;Signal;HPM_P1;HPM_P2
2021/08/19 00:00:06;;;;;;;8.50;6.90;;;;;;;14.97;66.99;101312.78;5159124;27;20043;-83
2021/08/19 00:02:32;;;;;;;8.95;7.07;;;;;;;15.08;66.83;101321.00;5158265;27;20047;-84
2021/08/19 00:04:58;;;;;;;7.40;6.00;;;;;;;14.95;66.70;101283.94;5157278;27;20047;-84
2021/08/19 00:07:26;;;;;;;7.90;6.15;;;;;;;15.03;66.49;101297.56;5159418;27;20061;-83
2021/08/19 00:09:54;;;;;;;6.78;5.50;;;;;;;15.01;66.29;101294.16;5157082;27;20103;-84
2021/08/19 00:12:21;;;;;;;6.68;5.43;;;;;;;15.17;65.98;101317.97;5139008;27;20066;-83
2021/08/19 00:14:47;;;;;;;7.95;5.20;;;;;;;14.97;65.93;101287.34;5158518;27;20406;-83
2021/08/19 00:17:14;;;;;;;7.57;5.15;;;;;;;14.94;65.67;101274.34;5157176;27;20047;-84
2021/08/19 00:19:39;;;;;;;5.68;4.28;;;;;;;15.08;65.70;101291.25;5157346;27;20099;-84
2021/08/19 00:22:05;;;;;;;6.63;4.65;;;;;;;15.07;65.68;101295.63;5158073;27;20046;-83
2021/08/19 00:24:32;;;;;;;7.45;4.70;;;;;;;15.07;65.81;101298.25;5158324;27;20464;-84
2021/08/19 00:26:59;;;;;;;6.68;4.47;;;;;;;15.15;65.62;101303.19;5158791;27;20058;-84
2021/08/19 00:29:25;;;;;;;6.13;4.18;;;;;;;15.13;65.82;101299.75;5158212;27;20415;-86
2021/08/19 00:31:51;;;;;;;6.32;4.53;;;;;;;15.19;65.75;101294.22;5157114;27;20051;-82
2021/08/19 00:34:17;;;;;;;5.40;3.70;;;;;;;15.21;64.84;101293.19;5181213;27;20042;-81
2021/08/19 00:36:45;;;;;;;5.07;3.70;;;;;;;15.00;64.96;101275.81;5176092;27;20370;-80
2021/08/19 00:39:10;;;;;;;5.60;3.03;;;;;;;14.94;65.25;101294.50;5160003;27;20046;-81
2021/08/19 00:41:37;;;;;;;5.63;3.72;;;;;;;14.88;65.47;101288.63;5156998;27;20046;-81
2021/08/19 00:44:06;;;;;;;6.53;3.90;;;;;;;14.99;65.73;101295.13;5157777;27;20092;-81
2021/08/19 00:46:35;;;;;;;6.07;4.13;;;;;;;14.91;65.48;101274.47;5157308;27;20047;-81
2021/08/19 00:49:07;;;;;;;5.47;3.50;;;;;;;15.00;65.72;101291.59;5156637;27;20046;-81
2021/08/19 00:51:36;;;;;;;6.18;3.67;;;;;;;15.03;65.41;101289.66;5139227;27;20039;-81
2021/08/19 00:54:29;;;;;;;6.40;3.40;;;;;;;15.13;65.10;101286.63;5157963;27;20042;-81
2021/08/19 00:57:00;;;;;;;4.40;3.30;;;;;;;15.02;65.00;101285.31;5151649;27;20087;-81
2021/08/19 00:59:33;;;;;;;5.25;3.25;;;;;;;15.05;65.03;101274.69;5156500;27;20095;-81
2021/08/19 01:02:00;;;;;;;5.50;3.80;;;;;;;15.07;65.11;101281.66;5156864;27;20092;-81
2021/08/19 01:04:47;;;;;;;6.28;3.30;;;;;;;15.09;65.04;101293.78;5156217;27;20051;-81
2021/08/19 01:07:16;;;;;;;4.80;3.22;;;;;;;14.99;65.08;101282.88;5170586;27;20064;-81
2021/08/19 01:09:42;;;;;;;5.18;3.50;;;;;;;15.03;64.72;101287.03;5173165;27;20043;-82
2021/08/19 01:12:13;;;;;;;4.88;3.38;;;;;;;14.96;64.54;101276.91;5151306;27;20065;-82
2021/08/19 01:14:44;;;;;;;5.70;3.58;;;;;;;14.92;64.22;101256.94;5138244;27;20043;-81
2021/08/19 01:17:15;;;;;;;6.18;3.90;;;;;;;14.88;64.29;101275.47;5155416;27;20042;-82
2021/08/19 01:19:59;;;;;;;5.97;4.72;;;;;;;15.04;63.27;101285.28;5155939;27;20084;-81
2021/08/19 01:22:26;;;;;;;7.05;4.95;;;;;;;15.01;63.35;101288.91;5157830;27;20043;-84
2021/08/19 01:24:53;;;;;;;7.53;4.63;;;;;;;14.93;63.13;101277.91;5156827;27;20043;-85
2021/08/19 01:27:21;;;;;;;7.90;6.13;;;;;;;14.84;63.07;101273.94;5174733;27;20076;-81
2021/08/19 01:29:49;;;;;;;8.05;6.78;;;;;;;14.79;63.31;101275.91;5159803;27;20043;-80
2021/08/19 01:32:17;;;;;;;7.88;5.80;;;;;;;14.80;63.29;101256.59;5171789;27;20047;-80
2021/08/19 01:34:43;;;;;;;7.97;5.85;;;;;;;14.83;63.02;101263.47;5158047;27;20053;-82
2021/08/19 01:37:11;;;;;;;8.10;5.45;;;;;;;14.84;63.21;101259.91;5157601;27;20460;-83
2021/08/19 01:39:38;;;;;;;7.45;6.05;;;;;;;14.83;63.38;101260.84;5145684;27;20510;-84
2021/08/19 01:42:05;;;;;;;6.82;6.10;;;;;;;14.87;63.34;101267.69;5155376;27;20047;-84
2021/08/19 01:44:31;;;;;;;6.63;5.55;;;;;;;14.70;63.33;101236.94;5152935;27;20054;-82
2021/08/19 01:47:04;;;;;;;7.68;6.22;;;;;;;14.89;63.07;101273.69;5145679;27;20039;-84
2021/08/19 01:49:31;;;;;;;7.97;6.10;;;;;;;14.83;63.47;101260.84;5154909;27;20039;-84
2021/08/19 01:52:11;;;;;;;8.98;6.20;;;;;;;14.72;63.30;101235.06;5138071;27;20053;-84
2021/08/19 01:54:39;;;;;;;8.30;6.15;;;;;;;14.83;63.20;101253.81;5150650;27;20513;-84
2021/08/19 01:57:06;;;;;;;7.93;6.32;;;;;;;14.76;63.44;101254.16;5155436;27;20050;-84
2021/08/19 01:59:34;;;;;;;8.82;6.60;;;;;;;14.61;63.72;101243.44;5155849;27;20043;-85
2021/08/19 02:02:00;;;;;;;8.82;6.55;;;;;;;14.67;64.26;101260.72;5155428;27;20087;-85
2021/08/19 02:04:27;;;;;;;9.30;7.25;;;;;;;14.75;64.18;101266.47;5152465;27;20047;-84
2021/08/19 02:06:52;;;;;;;9.55;7.65;;;;;;;14.80;64.40;101263.63;5156069;27;20042;-85
2021/08/19 02:09:18;;;;;;;10.18;8.82;;;;;;;14.86;63.96;101263.34;5137692;27;20142;-86
2021/08/19 02:11:47;;;;;;;10.48;9.30;;;;;;;14.90;64.06;101275.41;5154450;27;20388;-85
2021/08/19 02:14:13;;;;;;;11.80;10.60;;;;;;;14.82;63.19;101249.50;5155281;27;20621;-85
2021/08/19 02:16:39;;;;;;;14.68;12.05;;;;;;;15.04;62.76;101264.25;5154604;27;20042;-86
2021/08/19 02:19:05;;;;;;;12.98;11.68;;;;;;;15.02;62.37;101261.66;5155184;27;20434;-86
2021/08/19 02:21:31;;;;;;;12.93;11.57;;;;;;;14.89;62.08;101260.53;5137633;27;20061;-86
2021/08/19 02:23:57;;;;;;;13.02;11.73;;;;;;;14.70;62.03;101229.03;5156071;27;20066;-84
2021/08/19 02:26:23;;;;;;;11.60;10.40;;;;;;;14.65;62.12;101241.53;5136493;27;20487;-84
2021/08/19 02:28:49;;;;;;;12.18;10.93;;;;;;;14.70;62.46;101255.31;5153703;27;20042;-86
2021/08/19 02:31:16;;;;;;;12.38;11.27;;;;;;;14.55;62.60;101235.84;5154197;27;20047;-86
2021/08/19 02:33:42;;;;;;;11.95;10.75;;;;;;;14.48;62.49;101216.88;5135193;27;20057;-83
2021/08/19 02:36:09;;;;;;;11.52;10.48;;;;;;;14.56;62.44;101224.38;5153632;27;20399;-86
2021/08/19 02:38:35;;;;;;;11.65;10.45;;;;;;;14.41;62.82;101213.69;5146535;27;20107;-85
2021/08/19 02:41:01;;;;;;;11.18;10.07;;;;;;;14.57;62.75;101231.34;5125567;27;20440;-86
2021/08/19 02:43:27;;;;;;;10.63;9.63;;;;;;;14.69;62.48;101248.34;5153590;27;20539;-86
2021/08/19 02:45:53;;;;;;;10.65;9.55;;;;;;;14.65;62.68;101237.13;5152626;27;20047;-86
2021/08/19 02:48:19;;;;;;;11.30;10.20;;;;;;;14.78;62.56;101253.19;5153130;27;20066;-86
2021/08/19 02:50:45;;;;;;;10.07;9.05;;;;;;;14.82;62.31;101253.91;5154812;27;20050;-86
2021/08/19 02:53:15;;;;;;;10.75;9.65;;;;;;;14.76;61.94;101241.03;5154931;27;20050;-85
2021/08/19 02:55:41;;;;;;;12.25;9.95;;;;;;;14.50;62.02;101215.03;5154417;27;20077;-85
2021/08/19 02:58:09;;;;;;;10.73;9.63;;;;;;;14.76;61.81;101252.41;5154462;27;20070;-84
2021/08/19 03:00:35;;;;;;;11.02;9.93;;;;;;;14.58;61.79;101247.03;5150533;27;20062;-86
2021/08/19 03:03:01;;;;;;;10.43;9.43;;;;;;;14.60;62.03;101243.50;5162299;27;20117;-85
2021/08/19 03:05:26;;;;;;;10.35;9.35;;;;;;;14.73;61.96;101249.91;5165494;27;20038;-83
2021/08/19 03:07:53;;;;;;;11.25;9.50;;;;;;;14.60;62.18;101240.84;5155078;27;20061;-86
2021/08/19 03:10:19;;;;;;;10.65;9.57;;;;;;;14.47;62.46;101235.34;5152552;27;20088;-83
2021/08/19 03:12:46;;;;;;;10.00;9.00;;;;;;;14.52;62.40;101235.97;5153741;27;20399;-84
2021/08/19 03:15:12;;;;;;;10.13;8.98;;;;;;;14.43;62.53;101224.13;5154280;27;20050;-84
2021/08/19 03:17:38;;;;;;;10.18;9.15;;;;;;;14.47;62.77;101230.91;5152667;27;20414;-85
2021/08/19 03:20:07;;;;;;;9.95;8.95;;;;;;;14.54;62.56;101231.50;5153516;27;20047;-83
2021/08/19 03:22:34;;;;;;;11.38;8.70;;;;;;;14.51;62.56;101216.75;5133296;27;20429;-86
2021/08/19 03:25:00;;;;;;;9.60;8.60;;;;;;;14.38;62.56;101202.47;5153971;27;20388;-86
2021/08/19 03:27:31;;;;;;;10.65;9.05;;;;;;;14.62;62.43;101234.59;5110302;27;1229929;-85
2021/08/19 03:29:57;;;;;;;9.30;8.35;;;;;;;14.54;62.10;101237.59;5135833;27;20440;-83
2021/08/19 03:32:23;;;;;;;9.75;8.18;;;;;;;14.50;62.36;101233.41;5154045;27;20498;-84
2021/08/19 03:34:49;;;;;;;8.93;7.10;;;;;;;14.31;61.88;101208.94;5154514;27;20043;-86
2021/08/19 03:37:15;;;;;;;8.32;7.35;;;;;;;14.52;61.80;101234.19;5153273;27;20047;-84
2021/08/19 03:39:42;;;;;;;8.23;7.43;;;;;;;14.43;62.25;101233.75;5154657;27;20454;-84
2021/08/19 03:42:08;;;;;;;8.52;7.35;;;;;;;14.34;62.17;101225.41;5153507;27;20039;-83
2021/08/19 03:44:37;;;;;;;8.18;7.15;;;;;;;14.31;62.23;101229.94;5154285;27;20046;-86
2021/08/19 03:47:05;;;;;;;8.20;7.40;;;;;;;14.32;62.44;101229.00;5147429;27;20043;-84
2021/08/19 03:49:32;;;;;;;9.05;7.60;;;;;;;14.31;62.92;101227.31;5145443;27;20476;-83
2021/08/19 03:51:58;;;;;;;8.63;7.72;;;;;;;14.41;62.50;101224.19;5154639;27;20035;-82
2021/08/19 03:54:24;;;;;;;9.13;8.13;;;;;;;14.39;62.54;101217.28;5159490;27;20045;-85
2021/08/19 03:56:52;;;;;;;7.97;7.15;;;;;;;14.31;62.60;101204.50;5149111;27;20047;-85
2021/08/19 03:59:25;;;;;;;8.00;7.20;;;;;;;14.37;62.66;101214.75;5156267;27;20050;-86
2021/08/19 04:01:51;;;;;;;8.45;7.63;;;;;;;14.31;62.80;101212.41;5156124;27;20505;-86
2021/08/19 04:04:17;;;;;;;8.02;7.18;;;;;;;14.34;62.98;101216.66;5153740;27;20039;-86
2021/08/19 04:06:43;;;;;;;8.77;7.60;;;;;;;14.28;63.17;101209.91;5150324;27;20517;-85
2021/08/19 04:09:09;;;;;;;8.85;7.53;;;;;;;14.27;63.39;101217.84;5148243;27;20051;-85
2021/08/19 04:11:35;;;;;;;8.77;7.88;;;;;;;14.24;63.45;101213.59;5171857;27;20038;-83
2021/08/19 04:14:03;;;;;;;8.27;7.43;;;;;;;14.24;63.46;101198.72;5181476;27;20034;-82
2021/08/19 04:16:29;;;;;;;9.10;7.05;;;;;;;14.42;63.16;101211.91;5177991;27;20043;-84
2021/08/19 04:19:04;;;;;;;8.15;7.30;;;;;;;14.30;63.17;101209.84;5148171;27;20053;-86
2021/08/19 04:21:31;;;;;;;8.68;7.13;;;;;;;14.27;63.50;101218.72;5138812;27;20049;-85
2021/08/19 04:23:57;;;;;;;9.88;7.40;;;;;;;14.12;63.66;101199.22;5157625;27;20387;-84
2021/08/19 04:26:23;;;;;;;9.18;7.43;;;;;;;14.36;63.49;101223.53;5158027;27;20053;-86
2021/08/19 04:28:50;;;;;;;8.20;6.68;;;;;;;14.40;63.45;101222.50;5157340;27;20107;-88
2021/08/19 04:31:16;;;;;;;7.53;6.43;;;;;;;14.35;63.37;101199.97;5157902;27;20486;-83
2021/08/19 04:33:42;;;;;;;7.95;6.90;;;;;;;14.29;63.62;101201.09;5156429;27;20043;-86
2021/08/19 04:36:08;;;;;;;7.60;6.78;;;;;;;14.20;63.57;101199.75;5156567;27;20074;-85
2021/08/19 04:38:36;;;;;;;8.10;6.68;;;;;;;13.99;63.89;101204.19;5137377;27;20051;-85
2021/08/19 04:41:06;;;;;;;8.55;6.68;;;;;;;13.90;64.57;101204.59;5157068;27;20410;-87
2021/08/19 04:43:32;;;;;;;8.43;6.20;;;;;;;13.69;64.70;101175.75;5138864;27;20050;-86
2021/08/19 04:45:58;;;;;;;7.45;5.65;;;;;;;13.66;64.62;101165.41;5139136;27;20479;-86
2021/08/19 04:48:24;;;;;;;8.30;6.57;;;;;;;13.76;64.64;101205.22;5157900;27;20055;-86
2021/08/19 04:50:50;;;;;;;9.05;7.50;;;;;;;13.72;64.98;101203.63;5156317;27;20046;-85
2021/08/19 04:53:16;;;;;;;8.75;6.75;;;;;;;13.77;64.85;101204.28;5157190;27;20062;-86
2021/08/19 04:55:42;;;;;;;7.88;6.90;;;;;;;13.96;64.77;101219.22;5139113;27;20054;-86
2021/08/19 04:58:08;;;;;;;8.55;6.85;;;;;;;13.89;64.69;101193.25;5157016;27;20051;-86
2021/08/19 05:00:34;;;;;;;9.05;7.72;;;;;;;13.91;64.78;101204.56;5156889;27;20042;-84
2021/08/19 05:03:01;;;;;;;8.05;7.18;;;;;;;13.88;64.88;101204.66;5156785;27;20053;-86
2021/08/19 05:05:28;;;;;;;10.55;8.82;;;;;;;13.89;65.02;101206.38;5157513;27;20451;-85
2021/08/19 05:07:56;;;;;;;9.80;8.75;;;;;;;13.89;64.96;101208.13;5157749;27;20413;-86
2021/08/19 05:10:22;;;;;;;10.05;8.95;;;;;;;13.70;65.01;101185.31;5157243;27;20448;-87
2021/08/19 05:12:50;;;;;;;11.80;10.13;;;;;;;13.69;64.99;101190.66;5153823;27;20043;-87
2021/08/19 05:15:17;;;;;;;12.10;10.90;;;;;;;13.60;65.22;101182.25;5138778;27;20517;-86
2021/08/19 05:17:43;;;;;;;12.25;10.95;;;;;;;13.73;65.15;101200.09;5157160;27;20043;-86
2021/08/19 05:20:11;;;;;;;13.50;12.00;;;;;;;13.74;65.46;101201.78;5156822;27;20352;-86
2021/08/19 05:22:37;;;;;;;13.52;11.48;;;;;;;13.68;65.29;101187.16;5156288;27;20095;-85
2021/08/19 05:25:05;;;;;;;13.73;12.25;;;;;;;13.80;65.30;101200.69;5154288;27;20122;-87
2021/08/19 05:27:33;;;;;;;14.15;12.68;;;;;;;13.76;65.28;101205.22;5142782;27;20047;-87
2021/08/19 05:30:03;;;;;;;13.48;11.95;;;;;;;13.72;65.34;101193.13;5135788;27;20111;-86
2021/08/19 05:32:30;;;;;;;13.85;12.32;;;;;;;13.82;64.98;101193.56;5134937;27;20047;-86
2021/08/19 05:35:02;;;;;;;13.10;11.70;;;;;;;13.90;64.91;101189.72;5135709;27;20069;-84
2021/08/19 05:37:28;;;;;;;14.98;13.38;;;;;;;14.00;64.96;101198.03;5117328;27;20074;-82
2021/08/19 05:39:54;;;;;;;14.43;12.93;;;;;;;14.11;64.53;101197.56;5117362;27;20054;-82
2021/08/19 05:42:22;;;;;;;15.18;13.57;;;;;;;14.06;64.61;101187.25;5131693;27;20039;-82
2021/08/19 05:44:48;;;;;;;15.70;13.77;;;;;;;14.17;64.44;101205.16;5114929;28;20059;-83
2021/08/19 05:47:15;;;;;;;14.60;13.10;;;;;;;14.04;64.07;101165.47;5127395;27;20051;-82
2021/08/19 05:49:44;;;;;;;15.88;13.88;;;;;;;14.28;63.82;101191.53;5134731;27;20050;-82
2021/08/19 05:52:12;;;;;;;16.33;14.20;;;;;;;14.18;64.21;101185.00;5127079;27;20039;-87
2021/08/19 05:54:38;;;;;;;15.88;14.13;;;;;;;14.21;64.65;101190.13;5136321;27;20138;-87
2021/08/19 05:57:08;;;;;;;16.95;14.57;;;;;;;14.05;64.37;101154.06;5117097;27;20047;-87
2021/08/19 05:59:35;;;;;;;15.15;13.55;;;;;;;14.43;64.21;101207.50;5135101;27;20126;-86
2021/08/19 06:02:00;;;;;;;17.77;14.32;;;;;;;14.47;63.99;101202.03;5126137;27;20078;-85
2021/08/19 06:04:30;;;;;;;16.48;14.77;;;;;;;14.52;63.92;101201.81;5116185;27;20055;-82
2021/08/19 06:06:57;;;;;;;15.82;14.05;;;;;;;14.56;63.89;101198.13;5135256;27;20043;-81
2021/08/19 06:09:24;;;;;;;15.05;13.25;;;;;;;14.57;63.85;101181.44;5133971;27;20054;-80
2021/08/19 06:11:51;;;;;;;16.58;13.52;;;;;;;14.67;64.04;101200.28;5115586;27;20046;-81
2021/08/19 06:14:18;;;;;;;16.63;13.75;;;;;;;14.62;64.23;101192.56;5155968;27;20031;-80
2021/08/19 06:16:47;;;;;;;17.73;13.18;;;;;;;14.69;64.72;101196.66;5157366;27;20051;-80
2021/08/19 06:19:16;;;;;;;17.95;13.25;;;;;;;14.71;64.63;101181.66;5142721;27;20039;-82
2021/08/19 06:21:42;;;;;;;15.48;12.80;;;;;;;14.85;64.19;101188.88;5134146;27;20407;-82
2021/08/19 06:24:11;;;;;;;15.95;13.32;;;;;;;15.09;63.92;101217.53;5126780;27;20047;-83
2021/08/19 06:26:38;;;;;;;18.00;14.57;;;;;;;15.07;63.28;101179.09;5122142;27;20188;-82
2021/08/19 06:29:04;;;;;;;16.92;14.52;;;;;;;15.31;62.77;101208.59;5136551;27;20047;-82
2021/08/19 06:31:32;;;;;;;13.77;12.30;;;;;;;15.56;61.53;101199.47;5154689;27;20046;-82
2021/08/19 06:33:58;;;;;;;16.77;13.02;;;;;;;15.73;60.82;101202.06;5135155;27;20490;-83
2021/08/19 06:36:25;;;;;;;15.35;13.65;;;;;;;15.90;60.27;101201.22;5154774;27;20049;-81
2021/08/19 06:38:53;;;;;;;13.50;11.98;;;;;;;15.95;59.41;101186.03;5155595;27;20042;-82
2021/08/19 06:41:27;;;;;;;14.57;11.57;;;;;;;16.28;58.96;101194.84;5154589;27;20039;-85
2021/08/19 06:43:54;;;;;;;14.32;12.10;;;;;;;16.11;59.07;101186.06;5154842;27;20035;-83
2021/08/19 06:46:20;;;;;;;12.40;11.20;;;;;;;16.27;59.00;101195.75;5154615;27;20035;-81
2021/08/19 06:48:46;;;;;;;12.73;11.43;;;;;;;16.41;58.59;101202.94;5154793;27;20054;-82
2021/08/19 06:51:12;;;;;;;13.32;11.93;;;;;;;16.26;58.79;101178.25;5136145;27;20043;-82
2021/08/19 06:53:41;;;;;;;12.38;11.07;;;;;;;16.44;58.69;101202.75;5136256;27;20114;-81
2021/08/19 06:56:07;;;;;;;13.35;12.05;;;;;;;16.49;58.34;101204.22;5155321;27;20053;-82
2021/08/19 06:58:33;;;;;;;14.60;12.55;;;;;;;16.49;58.68;101201.56;5154604;27;20075;-82
2021/08/19 07:00:59;;;;;;;13.82;12.35;;;;;;;16.41;58.25;101168.69;5138480;27;20375;-82
2021/08/19 07:03:31;;;;;;;16.20;11.13;;;;;;;16.54;58.37;101188.16;5152454;27;20490;-84
2021/08/19 07:05:56;;;;;;;14.93;11.90;;;;;;;16.76;57.87;101193.06;5154753;27;20046;-82
2021/08/19 07:08:25;;;;;;;17.17;11.88;;;;;;;16.95;57.74;101195.56;5154629;27;20095;-83
2021/08/19 07:10:51;;;;;;;13.73;11.18;;;;;;;17.00;57.55;101199.69;5137340;27;20505;-82
2021/08/19 07:13:20;;;;;;;12.52;10.70;;;;;;;16.65;57.86;101172.56;5170725;27;20031;-83
2021/08/19 07:15:47;;;;;;;13.30;9.80;;;;;;;16.71;58.17;101188.97;5178751;27;20034;-83
2021/08/19 07:18:13;;;;;;;11.50;9.70;;;;;;;16.85;57.73;101193.50;5161940;27;20135;-83
2021/08/19 07:20:41;;;;;;;12.73;9.65;;;;;;;16.84;57.83;101191.78;5158886;27;20068;-83
2021/08/19 07:23:07;;;;;;;11.18;9.52;;;;;;;16.91;57.71;101180.78;5155346;27;20096;-83
2021/08/19 07:25:34;;;;;;;15.38;10.57;;;;;;;17.00;57.29;101186.50;5135960;27;20054;-83
2021/08/19 07:28:02;;;;;;;13.88;10.85;;;;;;;17.02;57.09;101193.41;5135987;27;20463;-83
2021/08/19 07:30:29;;;;;;;17.27;10.88;;;;;;;16.90;57.36;101194.06;5153842;27;20459;-84
2021/08/19 07:32:56;;;;;;;13.15;9.95;;;;;;;16.88;57.71;101199.44;5154896;27;20047;-83
2021/08/19 07:35:29;;;;;;;11.15;9.75;;;;;;;16.95;57.52;101194.69;5142567;27;20066;-82
2021/08/19 07:38:15;;;;;;;16.10;10.70;;;;;;;17.07;60.95;101185.22;5132303;27;20034;-84
2021/08/19 07:40:41;;;;;;;13.23;9.82;;;;;;;17.16;57.30;101189.09;5144090;27;20054;-84
2021/08/19 07:43:07;;;;;;;12.57;9.70;;;;;;;17.44;57.00;101197.13;5158508;27;20045;-84
2021/08/19 07:45:34;;;;;;;14.38;9.88;;;;;;;17.36;56.31;101202.00;5160264;27;20070;-84
2021/08/19 07:48:13;;;;;;;13.63;9.60;;;;;;;17.34;56.85;101192.47;5164760;27;20419;-87
2021/08/19 07:50:41;;;;;;;18.25;10.73;;;;;;;17.29;57.36;101196.19;5143641;27;20050;-85
2021/08/19 07:53:15;;;;;;;14.48;10.38;;;;;;;17.34;57.27;101188.03;5162057;27;20039;-84
2021/08/19 07:55:41;;;;;;;13.07;10.85;;;;;;;17.50;56.97;101181.84;5161640;27;20091;-86
2021/08/19 07:58:07;;;;;;;11.27;10.07;;;;;;;17.47;56.64;101182.88;5160115;27;20394;-85
2021/08/19 08:00:35;;;;;;;12.00;9.50;;;;;;;17.36;57.37;101166.84;5160296;27;20445;-86
2021/08/19 08:03:03;;;;;;;11.82;8.95;;;;;;;17.36;57.28;101180.88;5160448;27;20495;-86
2021/08/19 08:05:32;;;;;;;11.48;8.27;;;;;;;17.20;58.24;101172.16;5160327;27;20047;-86
2021/08/19 08:08:06;;;;;;;11.07;8.68;;;;;;;17.16;58.01;101183.84;5161159;27;20042;-86
2021/08/19 08:10:39;;;;;;;8.43;7.57;;;;;;;17.39;58.00;101185.13;5162170;27;20058;-85
2021/08/19 08:13:27;;;;;;;10.35;7.32;;;;;;;17.70;58.20;101172.72;5146293;27;20043;-86
2021/08/19 08:15:57;;;;;;;9.18;7.05;;;;;;;17.96;57.40;101168.53;5161958;27;20045;-86
2021/08/19 08:18:25;;;;;;;6.22;5.63;;;;;;;17.95;57.18;101150.97;5160831;27;20050;-86
2021/08/19 08:20:51;;;;;;;7.40;6.70;;;;;;;18.03;58.25;101180.41;5162481;27;20103;-85
2021/08/19 08:23:19;;;;;;;6.65;5.95;;;;;;;18.21;57.12;101162.56;5161121;27;20042;-86
2021/08/19 08:25:49;;;;;;;6.85;6.07;;;;;;;18.33;57.08;101162.72;5160912;27;20130;-87
2021/08/19 08:28:23;;;;;;;7.40;5.50;;;;;;;18.53;56.73;101174.69;5131658;27;20521;-89
2021/08/19 08:30:52;;;;;;;;;;;;;;;18.42;56.50;101175.34;5138626;27;20051;-89
2021/08/19 08:33:19;;;;;;;7.05;4.82;;;;;;;17.94;55.66;101099.06;5139103;27;19920;-87
2021/08/19 08:35:46;;;;;;;6.03;4.40;;;;;;;18.47;55.67;101175.91;5152165;27;20035;-88
2021/08/19 08:38:14;;;;;;;5.93;4.75;;;;;;;18.44;55.70;101114.47;5140845;28;20059;-84
2021/08/19 08:40:42;;;;;;;8.13;5.20;;;;;;;19.28;54.83;101178.66;5123078;28;20044;-87
2021/08/19 08:43:09;;;;;;;7.10;4.95;;;;;;;19.30;54.66;101182.03;5138036;27;20045;-84
2021/08/19 08:45:37;;;;;;;6.70;4.32;;;;;;;19.18;54.97;101179.25;5123833;27;20043;-79
2021/08/19 08:48:11;;;;;;;7.57;4.57;;;;;;;19.11;55.49;101180.59;5136625;27;20107;-78
2021/08/19 08:50:39;;;;;;;6.05;4.40;;;;;;;19.22;54.13;101179.88;5140597;27;20066;-85
2021/08/19 08:53:08;;;;;;;6.18;4.18;;;;;;;18.97;54.49;101172.72;5117131;28;20067;-83
2021/08/19 08:55:36;;;;;;;7.38;4.72;;;;;;;18.94;54.42;101157.06;5141915;27;20050;-85
2021/08/19 08:58:03;;;;;;;7.72;4.70;;;;;;;18.98;54.90;101164.72;5136565;27;20039;-84
2021/08/19 09:00:30;;;;;;;6.40;4.35;;;;;;;19.24;54.81;101178.00;5136297;27;20100;-84
2021/08/19 09:02:56;;;;;;;5.47;3.92;;;;;;;19.13;54.73;101154.91;5117690;27;20051;-84
2021/08/19 09:05:24;;;;;;;5.82;4.32;;;;;;;19.26;54.02;101172.59;5136160;27;20066;-84
2021/08/19 09:07:54;;;;;;;6.57;4.32;;;;;;;18.98;55.05;101177.06;5101549;27;20415;-84
2021/08/19 09:10:22;;;;;;;7.25;4.88;;;;;;;18.81;55.73;101175.50;5117956;27;20504;-84
2021/08/19 09:12:48;;;;;;;7.20;4.78;;;;;;;19.04;55.26;101163.44;5137021;27;20126;-84
2021/08/19 09:15:21;;;;;;;6.60;4.88;;;;;;;18.95;55.50;101170.19;5138616;27;20066;-84
2021/08/19 09:17:54;;;;;;;7.40;4.82;;;;;;;18.89;55.28;101136.19;5136456;27;20088;-84
2021/08/19 09:20:22;;;;;;;7.68;4.78;;;;;;;18.93;55.80;101172.13;5118651;27;20047;-83
2021/08/19 09:23:02;;;;;;;6.30;5.03;;;;;;;18.63;55.95;101144.03;5118207;27;20044;-83
2021/08/19 09:25:42;;;;;;;8.35;5.25;;;;;;;18.85;55.59;101155.88;5116524;27;20035;-84
2021/08/19 09:28:21;;;;;;;6.07;3.83;;;;;;;19.34;54.78;101173.75;5137047;27;20043;-85
2021/08/19 09:31:02;;;;;;;6.90;4.22;;;;;;;19.37;53.95;101135.66;5157472;27;20181;-84
2021/08/19 09:33:31;;;;;;;5.28;3.40;;;;;;;19.66;54.13;101172.53;5136456;27;20054;-84
2021/08/19 09:36:07;;;;;;;7.85;3.88;;;;;;;19.25;55.42;101169.13;5137302;27;20047;-84
2021/08/19 09:38:42;;;;;;;6.45;4.03;;;;;;;19.56;55.22;101172.31;5154757;27;20099;-84
2021/08/19 09:41:13;;;;;;;6.95;3.20;;;;;;;19.34;55.74;101170.28;5156338;27;20506;-84
2021/08/19 09:43:41;;;;;;;8.30;3.10;;;;;;;19.35;55.94;101179.94;5156702;27;20504;-84
2021/08/19 09:46:10;;;;;;;6.82;2.85;;;;;;;19.30;55.97;101177.59;5156331;27;20129;-84
2021/08/19 09:48:39;;;;;;;6.13;3.08;;;;;;;18.99;57.20;101173.50;5140511;27;20095;-84
2021/08/19 09:51:25;;;;;;;8.85;3.20;;;;;;;19.17;57.04;101172.25;5135901;27;20426;-83
2021/08/19 09:54:00;;;;;;;4.28;2.85;;;;;;;18.66;59.76;101170.28;5136773;27;20043;-84
2021/08/19 09:56:36;;;;;;;4.18;2.70;;;;;;;18.15;61.70;101160.31;5105402;27;20046;-84
2021/08/19 09:59:24;;;;;;;4.22;2.40;;;;;;;18.54;60.67;101169.28;5136920;27;20047;-84
2021/08/19 10:01:55;;;;;;;5.10;2.75;;;;;;;18.76;59.82;101182.91;5156855;27;20050;-86
2021/08/19 10:04:30;;;;;;;5.88;2.80;;;;;;;18.71;59.83;101176.13;5157252;27;20047;-85
2021/08/19 10:06:57;;;;;;;4.22;2.60;;;;;;;18.79;59.67;101172.13;5139046;27;20402;-84
2021/08/19 10:09:50;;;;;;;5.63;2.70;;;;;;;19.12;59.67;101176.19;5119129;27;20446;-85
2021/08/19 10:12:17;;;;;;;4.70;3.15;;;;;;;18.65;61.44;101133.34;5137837;27;20169;-83
2021/08/19 10:14:44;;;;;;;5.15;2.67;;;;;;;18.97;61.89;101170.94;5156558;27;20047;-84
2021/08/19 10:17:11;;;;;;;4.68;2.85;;;;;;;18.96;60.69;101144.59;5134101;27;20043;-85
2021/08/19 10:19:41;;;;;;;3.58;2.33;;;;;;;19.53;59.96;101161.94;5159347;27;20047;-85
2021/08/19 10:22:15;;;;;;;4.07;2.67;;;;;;;19.00;59.83;101087.88;5148667;27;20082;-85
2021/08/19 10:24:46;;;;;;;4.38;2.60;;;;;;;19.36;60.03;101113.63;5151673;27;20047;-85
2021/08/19 10:27:19;;;;;;;4.50;2.75;;;;;;;19.48;60.97;101158.75;5158801;27;20111;-86
2021/08/19 10:29:50;;;;;;;6.47;3.27;;;;;;;19.24;60.71;101159.47;5121649;27;20051;-85
2021/08/19 10:32:31;;;;;;;4.63;2.92;;;;;;;18.95;61.18;101125.22;5135478;27;20094;-85
2021/08/19 10:35:04;;;;;;;5.63;3.08;;;;;;;19.17;61.73;101156.38;5134959;27;20122;-85
2021/08/19 10:37:53;;;;;;;5.90;3.17;;;;;;;19.06;61.99;101132.44;5134371;27;20043;-85
2021/08/19 10:40:19;;;;;;;6.32;3.50;;;;;;;19.35;61.64;101150.81;5084037;27;20128;-85
2021/08/19 10:42:55;;;;;;;5.82;3.03;;;;;;;19.24;61.56;101129.50;5134971;27;20522;-85
2021/08/19 10:45:28;;;;;;;4.50;3.17;;;;;;;19.08;62.91;101145.56;5116726;27;20043;-85
2021/08/19 10:48:09;;;;;;;7.03;3.03;;;;;;;19.37;62.01;101135.66;5136556;27;20092;-85
2021/08/19 10:50:41;;;;;;;4.15;3.25;;;;;;;19.42;61.79;101135.34;5135487;27;20104;-85
2021/08/19 10:53:22;;;;;;;4.88;3.00;;;;;;;19.12;62.84;101136.50;5118584;27;20106;-85
2021/08/19 10:55:55;;;;;;;6.50;2.75;;;;;;;19.34;62.55;101128.75;5136059;27;20100;-84
2021/08/19 10:58:30;;;;;;;3.58;2.70;;;;;;;19.51;62.06;101124.13;5135816;27;20476;-84
2021/08/19 11:01:12;;;;;;;5.15;2.75;;;;;;;19.70;61.68;101133.44;5120328;28;20078;-85
2021/08/19 11:03:38;;;;;;;4.05;3.03;;;;;;;19.47;62.88;101133.22;5134875;28;20048;-87
2021/08/19 11:06:18;;;;;;;6.72;3.15;;;;;;;19.84;62.82;101125.41;5115980;28;20044;-84
2021/08/19 11:08:57;;;;;;;4.55;2.60;;;;;;;20.45;60.43;101125.44;5127748;28;20032;-84
2021/08/19 11:11:36;;;;;;;4.00;2.65;;;;;;;20.66;59.44;101090.31;5112751;28;20081;-83
2021/08/19 11:14:04;;;;;;;5.07;2.95;;;;;;;21.07;59.13;101112.91;5135034;28;20047;-83
2021/08/19 11:16:31;;;;;;;4.20;2.53;;;;;;;21.10;58.76;101109.19;5135112;28;20031;-84
2021/08/19 11:19:20;;;;;;;5.40;2.58;;;;;;;21.24;58.55;101106.31;5150317;28;20074;-87
2021/08/19 11:21:59;;;;;;;3.25;2.45;;;;;;;20.76;60.06;101115.25;5153036;27;20058;-87
2021/08/19 11:24:28;;;;;;;3.42;2.33;;;;;;;20.96;59.53;101118.22;5142779;27;20076;-87
2021/08/19 11:27:09;;;;;;;5.20;2.22;;;;;;;21.09;59.57;101116.31;5147056;27;20096;-88